sensor_id;sensor_type;location;lat;lon;timestamp;temperature;humidity
65239;SHT30;51827;51.186;6.926;2022-09-17T00:00:12;20.81;57.07
65239;SHT30;51827;51.186;6.926;2022-09-17T00:01:19;20.78;57.08
65239;SHT30;51827;51.186;6.926;2022-09-17T00:02:19;20.79;57.07
65239;SHT30;51827;51.186;6.926;2022-09-17T00:03:22;20.78;57.08
65239;SHT30;51827;51.186;6.926;2022-09-17T00:04:23;20.79;57.09
65239;SHT30;51827;51.186;6.926;2022-09-17T00:05:23;20.78;57.10
65239;SHT30;51827;51.186;6.926;2022-09-17T00:06:31;20.78;57.08
65239;SHT30;51827;51.186;6.926;2022-09-17T00:07:32;20.76;57.12
65239;SHT30;51827;51.186;6.926;2022-09-17T00:08:34;20.78;57.12
65239;SHT30;51827;51.186;6.926;2022-09-17T00:09:34;20.81;57.08
65239;SHT30;51827;51.186;6.926;2022-09-17T00:10:39;20.78;57.02
65239;SHT30;51827;51.186;6.926;2022-09-17T00:11:41;20.78;57.03
65239;SHT30;51827;51.186;6.926;2022-09-17T00:12:53;20.79;57.10
65239;SHT30;51827;51.186;6.926;2022-09-17T00:13:55;20.78;57.08
65239;SHT30;51827;51.186;6.926;2022-09-17T00:14:56;20.81;57.10
65239;SHT30;51827;51.186;6.926;2022-09-17T00:15:56;20.76;57.10
65239;SHT30;51827;51.186;6.926;2022-09-17T00:16:57;20.76;57.10
65239;SHT30;51827;51.186;6.926;2022-09-17T00:17:58;20.75;57.11
65239;SHT30;51827;51.186;6.926;2022-09-17T00:18:58;20.76;57.06
65239;SHT30;51827;51.186;6.926;2022-09-17T00:19:59;20.78;57.04
65239;SHT30;51827;51.186;6.926;2022-09-17T00:20:59;20.78;57.06
65239;SHT30;51827;51.186;6.926;2022-09-17T00:22:00;20.78;57.07
65239;SHT30;51827;51.186;6.926;2022-09-17T00:23:00;20.76;57.03
65239;SHT30;51827;51.186;6.926;2022-09-17T00:24:03;20.78;57.01
65239;SHT30;51827;51.186;6.926;2022-09-17T00:25:04;20.79;57.04
65239;SHT30;51827;51.186;6.926;2022-09-17T00:26:05;20.75;57.02
65239;SHT30;51827;51.186;6.926;2022-09-17T00:27:05;20.78;57.02
65239;SHT30;51827;51.186;6.926;2022-09-17T00:28:09;20.76;57.02
65239;SHT30;51827;51.186;6.926;2022-09-17T00:29:19;20.75;57.03
65239;SHT30;51827;51.186;6.926;2022-09-17T00:30:19;20.75;57.06
65239;SHT30;51827;51.186;6.926;2022-09-17T00:31:20;20.78;57.04
65239;SHT30;51827;51.186;6.926;2022-09-17T00:32:21;20.78;57.02
65239;SHT30;51827;51.186;6.926;2022-09-17T00:33:21;20.78;56.98
65239;SHT30;51827;51.186;6.926;2022-09-17T00:34:24;20.78;57.02
65239;SHT30;51827;51.186;6.926;2022-09-17T00:35:25;20.78;56.99
65239;SHT30;51827;51.186;6.926;2022-09-17T00:36:26;20.78;57.06
65239;SHT30;51827;51.186;6.926;2022-09-17T00:37:26;20.76;57.03
65239;SHT30;51827;51.186;6.926;2022-09-17T00:38:27;20.76;57.04
65239;SHT30;51827;51.186;6.926;2022-09-17T00:39:27;20.76;57.01
65239;SHT30;51827;51.186;6.926;2022-09-17T00:40:27;20.75;57.02
65239;SHT30;51827;51.186;6.926;2022-09-17T00:41:31;20.78;56.98
65239;SHT30;51827;51.186;6.926;2022-09-17T00:42:32;20.78;57.01
65239;SHT30;51827;51.186;6.926;2022-09-17T00:43:48;20.76;57.06
65239;SHT30;51827;51.186;6.926;2022-09-17T00:44:54;20.75;57.06
65239;SHT30;51827;51.186;6.926;2022-09-17T00:45:55;20.75;57.04
65239;SHT30;51827;51.186;6.926;2022-09-17T00:46:55;20.75;57.02
65239;SHT30;51827;51.186;6.926;2022-09-17T00:48:00;20.78;57.08
65239;SHT30;51827;51.186;6.926;2022-09-17T00:49:10;20.78;57.04
65239;SHT30;51827;51.186;6.926;2022-09-17T00:50:35;20.76;57.02
65239;SHT30;51827;51.186;6.926;2022-09-17T00:51:41;20.75;57.06
65239;SHT30;51827;51.186;6.926;2022-09-17T00:52:54;20.75;57.04
65239;SHT30;51827;51.186;6.926;2022-09-17T00:53:55;20.72;57.00
65239;SHT30;51827;51.186;6.926;2022-09-17T00:55:07;20.75;57.06
65239;SHT30;51827;51.186;6.926;2022-09-17T00:56:13;20.75;57.04
65239;SHT30;51827;51.186;6.926;2022-09-17T00:57:15;20.75;57.04
65239;SHT30;51827;51.186;6.926;2022-09-17T00:58:17;20.76;57.05
65239;SHT30;51827;51.186;6.926;2022-09-17T00:59:20;20.75;57.04
65239;SHT30;51827;51.186;6.926;2022-09-17T01:00:20;20.75;57.09
65239;SHT30;51827;51.186;6.926;2022-09-17T01:01:21;20.73;57.06
65239;SHT30;51827;51.186;6.926;2022-09-17T01:02:21;20.76;57.07
65239;SHT30;51827;51.186;6.926;2022-09-17T01:03:22;20.75;57.06
65239;SHT30;51827;51.186;6.926;2022-09-17T01:04:26;20.73;57.07
65239;SHT30;51827;51.186;6.926;2022-09-17T01:10:52;20.73;57.14
65239;SHT30;51827;51.186;6.926;2022-09-17T01:13:07;20.75;57.08
65239;SHT30;51827;51.186;6.926;2022-09-17T01:14:37;20.73;57.07
65239;SHT30;51827;51.186;6.926;2022-09-17T01:20:00;20.73;57.17
65239;SHT30;51827;51.186;6.926;2022-09-17T01:22:29;20.73;57.12
65239;SHT30;51827;51.186;6.926;2022-09-17T01:23:58;20.73;57.13
65239;SHT30;51827;51.186;6.926;2022-09-17T01:27:40;20.71;57.17
65239;SHT30;51827;51.186;6.926;2022-09-17T01:32:07;20.72;57.22
65239;SHT30;51827;51.186;6.926;2022-09-17T01:33:25;20.71;57.24
65239;SHT30;51827;51.186;6.926;2022-09-17T01:35:09;20.72;57.19
65239;SHT30;51827;51.186;6.926;2022-09-17T01:36:37;20.71;57.25
65239;SHT30;51827;51.186;6.926;2022-09-17T01:40:13;20.69;57.26
65239;SHT30;51827;51.186;6.926;2022-09-17T01:41:33;20.71;57.27
65239;SHT30;51827;51.186;6.926;2022-09-17T01:43:55;20.72;57.26
65239;SHT30;51827;51.186;6.926;2022-09-17T01:44:59;20.69;57.28
65239;SHT30;51827;51.186;6.926;2022-09-17T01:46:15;20.69;57.30
65239;SHT30;51827;51.186;6.926;2022-09-17T01:47:25;20.69;57.27
65239;SHT30;51827;51.186;6.926;2022-09-17T01:48:30;20.71;57.28
65239;SHT30;51827;51.186;6.926;2022-09-17T01:49:34;20.71;57.26
65239;SHT30;51827;51.186;6.926;2022-09-17T01:50:39;20.71;57.27
65239;SHT30;51827;51.186;6.926;2022-09-17T01:51:47;20.72;57.28
65239;SHT30;51827;51.186;6.926;2022-09-17T01:52:49;20.71;57.27
65239;SHT30;51827;51.186;6.926;2022-09-17T01:54:05;20.72;57.29
65239;SHT30;51827;51.186;6.926;2022-09-17T01:55:13;20.71;57.29
65239;SHT30;51827;51.186;6.926;2022-09-17T01:56:18;20.71;57.26
65239;SHT30;51827;51.186;6.926;2022-09-17T01:57:34;20.71;57.30
65239;SHT30;51827;51.186;6.926;2022-09-17T01:58:43;20.71;57.33
65239;SHT30;51827;51.186;6.926;2022-09-17T01:59:54;20.69;57.35
65239;SHT30;51827;51.186;6.926;2022-09-17T02:00:59;20.71;57.35
65239;SHT30;51827;51.186;6.926;2022-09-17T02:02:06;20.69;57.35
65239;SHT30;51827;51.186;6.926;2022-09-17T02:03:35;20.71;57.34
65239;SHT30;51827;51.186;6.926;2022-09-17T02:04:38;20.69;57.31
65239;SHT30;51827;51.186;6.926;2022-09-17T02:06:02;20.71;57.33
65239;SHT30;51827;51.186;6.926;2022-09-17T02:07:09;20.71;57.33
65239;SHT30;51827;51.186;6.926;2022-09-17T02:08:44;20.69;57.33
65239;SHT30;51827;51.186;6.926;2022-09-17T02:09:50;20.69;57.33
65239;SHT30;51827;51.186;6.926;2022-09-17T02:10:57;20.68;57.33
65239;SHT30;51827;51.186;6.926;2022-09-17T02:12:06;20.68;57.36
65239;SHT30;51827;51.186;6.926;2022-09-17T02:14:57;20.68;57.36
65239;SHT30;51827;51.186;6.926;2022-09-17T02:16:12;20.69;57.35
65239;SHT30;51827;51.186;6.926;2022-09-17T02:18:38;20.68;57.41
65239;SHT30;51827;51.186;6.926;2022-09-17T02:19:40;20.68;57.36
65239;SHT30;51827;51.186;6.926;2022-09-17T02:20:53;20.67;57.37
65239;SHT30;51827;51.186;6.926;2022-09-17T02:21:59;20.68;57.39
65239;SHT30;51827;51.186;6.926;2022-09-17T02:23:05;20.71;57.34
65239;SHT30;51827;51.186;6.926;2022-09-17T02:24:22;20.68;57.37
65239;SHT30;51827;51.186;6.926;2022-09-17T02:25:25;20.68;57.40
65239;SHT30;51827;51.186;6.926;2022-09-17T02:26:27;20.69;57.38
65239;SHT30;51827;51.186;6.926;2022-09-17T02:28:52;20.67;57.36
65239;SHT30;51827;51.186;6.926;2022-09-17T02:29:54;20.68;57.32
65239;SHT30;51827;51.186;6.926;2022-09-17T02:30:54;20.71;57.36
65239;SHT30;51827;51.186;6.926;2022-09-17T02:31:55;20.68;57.37
65239;SHT30;51827;51.186;6.926;2022-09-17T02:32:55;20.69;57.40
65239;SHT30;51827;51.186;6.926;2022-09-17T02:33:59;20.69;57.40
65239;SHT30;51827;51.186;6.926;2022-09-17T02:35:00;20.68;57.43
65239;SHT30;51827;51.186;6.926;2022-09-17T02:36:01;20.69;57.37
65239;SHT30;51827;51.186;6.926;2022-09-17T02:37:02;20.68;57.35
65239;SHT30;51827;51.186;6.926;2022-09-17T02:38:02;20.67;57.36
65239;SHT30;51827;51.186;6.926;2022-09-17T02:39:03;20.68;57.40
65239;SHT30;51827;51.186;6.926;2022-09-17T02:40:04;20.68;57.39
65239;SHT30;51827;51.186;6.926;2022-09-17T02:41:16;20.68;57.38
65239;SHT30;51827;51.186;6.926;2022-09-17T02:44:02;20.68;57.35
65239;SHT30;51827;51.186;6.926;2022-09-17T02:50:01;20.67;57.42
65239;SHT30;51827;51.186;6.926;2022-09-17T02:58:02;20.68;57.43
65239;SHT30;51827;51.186;6.926;2022-09-17T02:59:39;20.67;57.45
65239;SHT30;51827;51.186;6.926;2022-09-17T03:00:43;20.67;57.43
65239;SHT30;51827;51.186;6.926;2022-09-17T03:03:52;20.67;57.47
65239;SHT30;51827;51.186;6.926;2022-09-17T03:04:53;20.65;57.48
65239;SHT30;51827;51.186;6.926;2022-09-17T03:05:55;20.64;57.49
65239;SHT30;51827;51.186;6.926;2022-09-17T03:06:56;20.62;57.50
65239;SHT30;51827;51.186;6.926;2022-09-17T03:08:06;20.64;57.50
65239;SHT30;51827;51.186;6.926;2022-09-17T03:09:07;20.65;57.48
65239;SHT30;51827;51.186;6.926;2022-09-17T03:10:07;20.65;57.47
65239;SHT30;51827;51.186;6.926;2022-09-17T03:11:09;20.68;57.45
65239;SHT30;51827;51.186;6.926;2022-09-17T03:12:11;20.64;57.42
65239;SHT30;51827;51.186;6.926;2022-09-17T03:13:11;20.67;57.41
65239;SHT30;51827;51.186;6.926;2022-09-17T03:14:21;20.67;57.41
65239;SHT30;51827;51.186;6.926;2022-09-17T03:15:22;20.67;57.42
65239;SHT30;51827;51.186;6.926;2022-09-17T03:16:22;20.68;57.44
65239;SHT30;51827;51.186;6.926;2022-09-17T03:17:22;20.67;57.48
65239;SHT30;51827;51.186;6.926;2022-09-17T03:18:22;20.68;57.46
65239;SHT30;51827;51.186;6.926;2022-09-17T03:19:23;20.64;57.47
65239;SHT30;51827;51.186;6.926;2022-09-17T03:20:23;20.65;57.48
65239;SHT30;51827;51.186;6.926;2022-09-17T03:21:23;20.65;57.46
65239;SHT30;51827;51.186;6.926;2022-09-17T03:22:24;20.65;57.47
65239;SHT30;51827;51.186;6.926;2022-09-17T03:23:24;20.64;57.44
65239;SHT30;51827;51.186;6.926;2022-09-17T03:24:24;20.65;57.48
65239;SHT30;51827;51.186;6.926;2022-09-17T03:25:25;20.64;57.49
65239;SHT30;51827;51.186;6.926;2022-09-17T03:26:25;20.65;57.46
65239;SHT30;51827;51.186;6.926;2022-09-17T03:27:26;20.62;57.45
65239;SHT30;51827;51.186;6.926;2022-09-17T03:28:29;20.67;57.48
65239;SHT30;51827;51.186;6.926;2022-09-17T03:29:29;20.64;57.50
65239;SHT30;51827;51.186;6.926;2022-09-17T03:30:29;20.64;57.50
65239;SHT30;51827;51.186;6.926;2022-09-17T03:31:30;20.65;57.46
65239;SHT30;51827;51.186;6.926;2022-09-17T03:32:30;20.64;57.44
65239;SHT30;51827;51.186;6.926;2022-09-17T03:33:31;20.62;57.46
65239;SHT30;51827;51.186;6.926;2022-09-17T03:34:31;20.62;57.46
65239;SHT30;51827;51.186;6.926;2022-09-17T03:35:31;20.64;57.50
65239;SHT30;51827;51.186;6.926;2022-09-17T03:36:32;20.64;57.46
65239;SHT30;51827;51.186;6.926;2022-09-17T03:37:32;20.62;57.47
65239;SHT30;51827;51.186;6.926;2022-09-17T03:38:33;20.64;57.46
65239;SHT30;51827;51.186;6.926;2022-09-17T03:39:33;20.62;57.47
65239;SHT30;51827;51.186;6.926;2022-09-17T03:40:34;20.65;57.48
65239;SHT30;51827;51.186;6.926;2022-09-17T03:41:34;20.64;57.49
65239;SHT30;51827;51.186;6.926;2022-09-17T03:42:34;20.65;57.46
65239;SHT30;51827;51.186;6.926;2022-09-17T03:43:34;20.62;57.49
65239;SHT30;51827;51.186;6.926;2022-09-17T03:44:35;20.64;57.51
65239;SHT30;51827;51.186;6.926;2022-09-17T03:45:35;20.64;57.47
65239;SHT30;51827;51.186;6.926;2022-09-17T03:46:35;20.64;57.47
65239;SHT30;51827;51.186;6.926;2022-09-17T03:47:44;20.64;57.51
65239;SHT30;51827;51.186;6.926;2022-09-17T03:48:45;20.62;57.50
65239;SHT30;51827;51.186;6.926;2022-09-17T03:49:45;20.64;57.46
65239;SHT30;51827;51.186;6.926;2022-09-17T03:50:45;20.64;57.52
65239;SHT30;51827;51.186;6.926;2022-09-17T03:51:45;20.62;57.50
65239;SHT30;51827;51.186;6.926;2022-09-17T03:52:49;20.64;57.41
65239;SHT30;51827;51.186;6.926;2022-09-17T03:53:49;20.62;57.50
65239;SHT30;51827;51.186;6.926;2022-09-17T03:54:49;20.61;57.49
65239;SHT30;51827;51.186;6.926;2022-09-17T03:55:49;20.61;57.43
65239;SHT30;51827;51.186;6.926;2022-09-17T03:56:50;20.64;57.44
65239;SHT30;51827;51.186;6.926;2022-09-17T03:57:50;20.65;57.47
65239;SHT30;51827;51.186;6.926;2022-09-17T03:58:55;20.64;57.50
65239;SHT30;51827;51.186;6.926;2022-09-17T03:59:55;20.64;57.48
65239;SHT30;51827;51.186;6.926;2022-09-17T04:00:56;20.62;57.47
65239;SHT30;51827;51.186;6.926;2022-09-17T04:01:56;20.64;57.47
65239;SHT30;51827;51.186;6.926;2022-09-17T04:02:56;20.62;57.46
65239;SHT30;51827;51.186;6.926;2022-09-17T04:03:59;20.62;57.43
65239;SHT30;51827;51.186;6.926;2022-09-17T04:05:00;20.64;57.50
65239;SHT30;51827;51.186;6.926;2022-09-17T04:06:00;20.64;57.51
65239;SHT30;51827;51.186;6.926;2022-09-17T04:07:00;20.62;57.49
65239;SHT30;51827;51.186;6.926;2022-09-17T04:08:01;20.61;57.50
65239;SHT30;51827;51.186;6.926;2022-09-17T04:09:01;20.61;57.48
65239;SHT30;51827;51.186;6.926;2022-09-17T04:10:02;20.62;57.51
65239;SHT30;51827;51.186;6.926;2022-09-17T04:11:02;20.61;57.45
65239;SHT30;51827;51.186;6.926;2022-09-17T04:12:03;20.62;57.51
65239;SHT30;51827;51.186;6.926;2022-09-17T04:13:03;20.61;57.44
65239;SHT30;51827;51.186;6.926;2022-09-17T04:14:03;20.61;57.51
65239;SHT30;51827;51.186;6.926;2022-09-17T04:15:04;20.64;57.46
65239;SHT30;51827;51.186;6.926;2022-09-17T04:16:04;20.61;57.48
65239;SHT30;51827;51.186;6.926;2022-09-17T04:17:05;20.62;57.50
65239;SHT30;51827;51.186;6.926;2022-09-17T04:18:08;20.61;57.47
65239;SHT30;51827;51.186;6.926;2022-09-17T04:19:11;20.59;57.49
65239;SHT30;51827;51.186;6.926;2022-09-17T04:20:11;20.62;57.49
65239;SHT30;51827;51.186;6.926;2022-09-17T04:21:11;20.65;57.48
65239;SHT30;51827;51.186;6.926;2022-09-17T04:22:12;20.59;57.48
65239;SHT30;51827;51.186;6.926;2022-09-17T04:23:12;20.61;57.48
65239;SHT30;51827;51.186;6.926;2022-09-17T04:24:12;20.59;57.49
65239;SHT30;51827;51.186;6.926;2022-09-17T04:25:16;20.62;57.47
65239;SHT30;51827;51.186;6.926;2022-09-17T04:26:22;20.59;57.52
65239;SHT30;51827;51.186;6.926;2022-09-17T04:27:22;20.61;57.56
65239;SHT30;51827;51.186;6.926;2022-09-17T04:28:22;20.62;57.49
65239;SHT30;51827;51.186;6.926;2022-09-17T04:29:23;20.61;57.53
65239;SHT30;51827;51.186;6.926;2022-09-17T04:30:23;20.58;57.52
65239;SHT30;51827;51.186;6.926;2022-09-17T04:31:32;20.59;57.49
65239;SHT30;51827;51.186;6.926;2022-09-17T04:32:32;20.59;57.52
65239;SHT30;51827;51.186;6.926;2022-09-17T04:33:32;20.61;57.52
65239;SHT30;51827;51.186;6.926;2022-09-17T04:34:32;20.61;57.50
65239;SHT30;51827;51.186;6.926;2022-09-17T04:35:33;20.59;57.52
65239;SHT30;51827;51.186;6.926;2022-09-17T04:36:33;20.59;57.52
65239;SHT30;51827;51.186;6.926;2022-09-17T04:37:36;20.61;57.48
65239;SHT30;51827;51.186;6.926;2022-09-17T04:38:36;20.59;57.54
65239;SHT30;51827;51.186;6.926;2022-09-17T04:39:39;20.62;57.57
65239;SHT30;51827;51.186;6.926;2022-09-17T04:40:40;20.59;57.52
65239;SHT30;51827;51.186;6.926;2022-09-17T04:41:40;20.58;57.51
65239;SHT30;51827;51.186;6.926;2022-09-17T04:42:40;20.59;57.49
65239;SHT30;51827;51.186;6.926;2022-09-17T04:43:40;20.62;57.52
65239;SHT30;51827;51.186;6.926;2022-09-17T04:44:41;20.59;57.54
65239;SHT30;51827;51.186;6.926;2022-09-17T04:45:45;20.59;57.51
65239;SHT30;51827;51.186;6.926;2022-09-17T04:46:45;20.61;57.52
65239;SHT30;51827;51.186;6.926;2022-09-17T04:47:46;20.58;57.48
65239;SHT30;51827;51.186;6.926;2022-09-17T04:48:46;20.61;57.52
65239;SHT30;51827;51.186;6.926;2022-09-17T04:49:46;20.61;57.49
65239;SHT30;51827;51.186;6.926;2022-09-17T04:50:47;20.59;57.47
65239;SHT30;51827;51.186;6.926;2022-09-17T04:51:50;20.59;57.46
65239;SHT30;51827;51.186;6.926;2022-09-17T04:52:50;20.59;57.46
65239;SHT30;51827;51.186;6.926;2022-09-17T04:53:51;20.58;57.48
65239;SHT30;51827;51.186;6.926;2022-09-17T04:54:51;20.59;57.51
65239;SHT30;51827;51.186;6.926;2022-09-17T04:55:51;20.59;57.50
65239;SHT30;51827;51.186;6.926;2022-09-17T04:57:00;20.59;57.48
65239;SHT30;51827;51.186;6.926;2022-09-17T04:58:01;20.58;57.48
65239;SHT30;51827;51.186;6.926;2022-09-17T04:59:01;20.58;57.51
65239;SHT30;51827;51.186;6.926;2022-09-17T05:00:03;20.58;57.49
65239;SHT30;51827;51.186;6.926;2022-09-17T05:01:04;20.56;57.49
65239;SHT30;51827;51.186;6.926;2022-09-17T05:02:04;20.59;57.52
65239;SHT30;51827;51.186;6.926;2022-09-17T05:03:04;20.59;57.52
65239;SHT30;51827;51.186;6.926;2022-09-17T05:04:07;20.55;57.52
65239;SHT30;51827;51.186;6.926;2022-09-17T05:05:10;20.56;57.53
65239;SHT30;51827;51.186;6.926;2022-09-17T05:06:10;20.58;57.51
65239;SHT30;51827;51.186;6.926;2022-09-17T05:07:11;20.55;57.52
65239;SHT30;51827;51.186;6.926;2022-09-17T05:08:11;20.58;57.53
65239;SHT30;51827;51.186;6.926;2022-09-17T05:09:11;20.56;57.55
65239;SHT30;51827;51.186;6.926;2022-09-17T05:10:17;20.61;57.51
65239;SHT30;51827;51.186;6.926;2022-09-17T05:11:17;20.56;57.53
65239;SHT30;51827;51.186;6.926;2022-09-17T05:12:18;20.58;57.53
65239;SHT30;51827;51.186;6.926;2022-09-17T05:13:18;20.58;57.55
65239;SHT30;51827;51.186;6.926;2022-09-17T05:14:18;20.61;57.52
65239;SHT30;51827;51.186;6.926;2022-09-17T05:15:27;20.58;57.49
65239;SHT30;51827;51.186;6.926;2022-09-17T05:16:28;20.58;57.57
65239;SHT30;51827;51.186;6.926;2022-09-17T05:17:28;20.56;57.58
65239;SHT30;51827;51.186;6.926;2022-09-17T05:18:28;20.53;57.58
65239;SHT30;51827;51.186;6.926;2022-09-17T05:19:29;20.55;57.63
65239;SHT30;51827;51.186;6.926;2022-09-17T05:20:29;20.55;57.64
65239;SHT30;51827;51.186;6.926;2022-09-17T05:21:29;20.58;57.59
65239;SHT30;51827;51.186;6.926;2022-09-17T05:22:29;20.56;57.64
65239;SHT30;51827;51.186;6.926;2022-09-17T05:23:30;20.53;57.71
65239;SHT30;51827;51.186;6.926;2022-09-17T05:24:30;20.55;57.69
65239;SHT30;51827;51.186;6.926;2022-09-17T05:25:30;20.58;57.66
65239;SHT30;51827;51.186;6.926;2022-09-17T05:26:30;20.58;57.67
65239;SHT30;51827;51.186;6.926;2022-09-17T05:27:31;20.58;57.67
65239;SHT30;51827;51.186;6.926;2022-09-17T05:28:31;20.55;57.76
65239;SHT30;51827;51.186;6.926;2022-09-17T05:29:31;20.56;57.71
65239;SHT30;51827;51.186;6.926;2022-09-17T05:30:31;20.56;57.71
65239;SHT30;51827;51.186;6.926;2022-09-17T05:31:32;20.55;57.71
65239;SHT30;51827;51.186;6.926;2022-09-17T05:32:32;20.61;57.69
65239;SHT30;51827;51.186;6.926;2022-09-17T05:33:33;20.59;57.71
65239;SHT30;51827;51.186;6.926;2022-09-17T05:34:33;20.58;57.76
65239;SHT30;51827;51.186;6.926;2022-09-17T05:35:34;20.58;57.70
65239;SHT30;51827;51.186;6.926;2022-09-17T05:36:37;20.55;57.74
65239;SHT30;51827;51.186;6.926;2022-09-17T05:37:37;20.55;57.76
65239;SHT30;51827;51.186;6.926;2022-09-17T05:38:37;20.53;57.77
65239;SHT30;51827;51.186;6.926;2022-09-17T05:39:37;20.56;57.76
65239;SHT30;51827;51.186;6.926;2022-09-17T05:40:38;20.55;57.74
65239;SHT30;51827;51.186;6.926;2022-09-17T05:41:40;20.55;57.79
65239;SHT30;51827;51.186;6.926;2022-09-17T05:42:41;20.59;57.81
65239;SHT30;51827;51.186;6.926;2022-09-17T05:43:44;20.55;57.81
65239;SHT30;51827;51.186;6.926;2022-09-17T05:44:44;20.56;57.79
65239;SHT30;51827;51.186;6.926;2022-09-17T05:45:44;20.55;57.80
65239;SHT30;51827;51.186;6.926;2022-09-17T05:46:47;20.58;57.80
65239;SHT30;51827;51.186;6.926;2022-09-17T05:47:57;20.55;57.80
65239;SHT30;51827;51.186;6.926;2022-09-17T05:48:58;20.55;57.76
65239;SHT30;51827;51.186;6.926;2022-09-17T05:49:58;20.55;57.76
65239;SHT30;51827;51.186;6.926;2022-09-17T05:50:58;20.56;57.75
65239;SHT30;51827;51.186;6.926;2022-09-17T05:51:59;20.52;57.75
65239;SHT30;51827;51.186;6.926;2022-09-17T05:53:09;20.56;57.79
65239;SHT30;51827;51.186;6.926;2022-09-17T05:54:10;20.58;57.75
65239;SHT30;51827;51.186;6.926;2022-09-17T05:55:10;20.56;57.78
65239;SHT30;51827;51.186;6.926;2022-09-17T05:56:10;20.55;57.74
65239;SHT30;51827;51.186;6.926;2022-09-17T05:57:10;20.53;57.78
65239;SHT30;51827;51.186;6.926;2022-09-17T05:58:13;20.53;57.77
65239;SHT30;51827;51.186;6.926;2022-09-17T05:59:13;20.55;57.77
65239;SHT30;51827;51.186;6.926;2022-09-17T06:00:22;20.55;57.69
65239;SHT30;51827;51.186;6.926;2022-09-17T06:01:23;20.58;57.65
65239;SHT30;51827;51.186;6.926;2022-09-17T06:02:23;20.53;57.70
65239;SHT30;51827;51.186;6.926;2022-09-17T06:03:23;20.55;57.64
65239;SHT30;51827;51.186;6.926;2022-09-17T06:04:24;20.53;57.64
65239;SHT30;51827;51.186;6.926;2022-09-17T06:05:24;20.55;57.69
65239;SHT30;51827;51.186;6.926;2022-09-17T06:06:24;20.58;57.66
65239;SHT30;51827;51.186;6.926;2022-09-17T06:07:27;20.52;57.66
65239;SHT30;51827;51.186;6.926;2022-09-17T06:08:27;20.53;57.67
65239;SHT30;51827;51.186;6.926;2022-09-17T06:09:28;20.55;57.63
65239;SHT30;51827;51.186;6.926;2022-09-17T06:10:28;20.55;57.66
65239;SHT30;51827;51.186;6.926;2022-09-17T06:11:28;20.55;57.64
65239;SHT30;51827;51.186;6.926;2022-09-17T06:12:28;20.53;57.64
65239;SHT30;51827;51.186;6.926;2022-09-17T06:13:29;20.53;57.63
65239;SHT30;51827;51.186;6.926;2022-09-17T06:14:29;20.55;57.64
65239;SHT30;51827;51.186;6.926;2022-09-17T06:15:29;20.55;57.63
65239;SHT30;51827;51.186;6.926;2022-09-17T06:16:30;20.52;57.61
65239;SHT30;51827;51.186;6.926;2022-09-17T06:17:34;20.56;57.58
65239;SHT30;51827;51.186;6.926;2022-09-17T06:18:35;20.55;57.59
65239;SHT30;51827;51.186;6.926;2022-09-17T06:19:35;20.53;57.61
65239;SHT30;51827;51.186;6.926;2022-09-17T06:20:35;20.52;57.61
65239;SHT30;51827;51.186;6.926;2022-09-17T06:21:35;20.51;57.57
65239;SHT30;51827;51.186;6.926;2022-09-17T06:22:36;20.51;57.58
65239;SHT30;51827;51.186;6.926;2022-09-17T06:23:36;20.49;57.64
65239;SHT30;51827;51.186;6.926;2022-09-17T06:24:36;20.49;57.58
65239;SHT30;51827;51.186;6.926;2022-09-17T06:25:36;20.49;57.59
65239;SHT30;51827;51.186;6.926;2022-09-17T06:26:37;20.51;57.58
65239;SHT30;51827;51.186;6.926;2022-09-17T06:27:40;20.52;57.55
65239;SHT30;51827;51.186;6.926;2022-09-17T06:28:40;20.52;57.51
65239;SHT30;51827;51.186;6.926;2022-09-17T06:29:40;20.52;57.49
65239;SHT30;51827;51.186;6.926;2022-09-17T06:30:41;20.51;57.50
65239;SHT30;51827;51.186;6.926;2022-09-17T06:31:41;20.49;57.46
65239;SHT30;51827;51.186;6.926;2022-09-17T06:33:02;20.47;57.48
65239;SHT30;51827;51.186;6.926;2022-09-17T06:34:02;20.48;57.45
65239;SHT30;51827;51.186;6.926;2022-09-17T06:35:02;20.51;57.36
65239;SHT30;51827;51.186;6.926;2022-09-17T06:36:06;20.48;57.40
65239;SHT30;51827;51.186;6.926;2022-09-17T06:37:06;20.47;57.37
65239;SHT30;51827;51.186;6.926;2022-09-17T06:38:12;20.47;57.40
65239;SHT30;51827;51.186;6.926;2022-09-17T06:39:12;20.49;57.34
65239;SHT30;51827;51.186;6.926;2022-09-17T06:40:13;20.47;57.35
65239;SHT30;51827;51.186;6.926;2022-09-17T06:41:13;20.48;57.37
65239;SHT30;51827;51.186;6.926;2022-09-17T06:42:13;20.45;57.37
65239;SHT30;51827;51.186;6.926;2022-09-17T06:43:25;20.48;57.34
65239;SHT30;51827;51.186;6.926;2022-09-17T06:44:26;20.47;57.31
65239;SHT30;51827;51.186;6.926;2022-09-17T06:45:26;20.45;57.31
65239;SHT30;51827;51.186;6.926;2022-09-17T06:46:26;20.45;57.32
65239;SHT30;51827;51.186;6.926;2022-09-17T06:47:27;20.44;57.25
65239;SHT30;51827;51.186;6.926;2022-09-17T06:48:32;20.45;57.26
65239;SHT30;51827;51.186;6.926;2022-09-17T06:49:32;20.47;57.30
65239;SHT30;51827;51.186;6.926;2022-09-17T06:50:33;20.47;57.20
65239;SHT30;51827;51.186;6.926;2022-09-17T06:51:33;20.47;57.17
65239;SHT30;51827;51.186;6.926;2022-09-17T06:52:33;20.45;57.20
65239;SHT30;51827;51.186;6.926;2022-09-17T06:53:35;20.45;57.20
65239;SHT30;51827;51.186;6.926;2022-09-17T06:54:35;20.48;57.14
65239;SHT30;51827;51.186;6.926;2022-09-17T06:55:36;20.47;57.13
65239;SHT30;51827;51.186;6.926;2022-09-17T06:56:36;20.47;57.14
65239;SHT30;51827;51.186;6.926;2022-09-17T06:57:36;20.49;57.11
65239;SHT30;51827;51.186;6.926;2022-09-17T06:58:37;20.51;57.13
65239;SHT30;51827;51.186;6.926;2022-09-17T06:59:42;20.48;57.10
65239;SHT30;51827;51.186;6.926;2022-09-17T07:00:42;20.47;57.12
65239;SHT30;51827;51.186;6.926;2022-09-17T07:01:43;20.49;57.09
65239;SHT30;51827;51.186;6.926;2022-09-17T07:02:53;20.48;57.12
65239;SHT30;51827;51.186;6.926;2022-09-17T07:03:54;20.49;57.08
65239;SHT30;51827;51.186;6.926;2022-09-17T07:05:03;20.51;57.10
65239;SHT30;51827;51.186;6.926;2022-09-17T07:06:07;20.48;57.12
65239;SHT30;51827;51.186;6.926;2022-09-17T07:07:08;20.51;57.14
65239;SHT30;51827;51.186;6.926;2022-09-17T07:08:08;20.49;57.14
65239;SHT30;51827;51.186;6.926;2022-09-17T07:09:08;20.48;57.13
65239;SHT30;51827;51.186;6.926;2022-09-17T07:10:08;20.48;57.18
65239;SHT30;51827;51.186;6.926;2022-09-17T07:11:09;20.48;57.15
65239;SHT30;51827;51.186;6.926;2022-09-17T07:12:09;20.48;57.19
65239;SHT30;51827;51.186;6.926;2022-09-17T07:13:09;20.49;57.19
65239;SHT30;51827;51.186;6.926;2022-09-17T07:14:09;20.47;57.20
65239;SHT30;51827;51.186;6.926;2022-09-17T07:15:12;20.48;57.23
65239;SHT30;51827;51.186;6.926;2022-09-17T07:16:15;20.48;57.21
65239;SHT30;51827;51.186;6.926;2022-09-17T07:17:15;20.47;57.23
65239;SHT30;51827;51.186;6.926;2022-09-17T07:18:15;20.51;57.24
65239;SHT30;51827;51.186;6.926;2022-09-17T07:19:16;20.51;57.22